Plainwell, Michigan
Current Conditions -  °F | °C
As of 1:53 PM on Monday 20 Oct 2014 (Local Time) from KAZO Reporting Station
Overcast Overcast  
Wind Chill: 54°   Ceiling: 1400
Heat Index: 54°   Visibility: 10mi
Dew Point: 48°   Wind: 8mph
Humidity: 80%   Direction: 260°W
Pressure: 29.82"   Gusts: NA
Location:  42.44°N, 85.65°W
Report Text: KAZO 201753Z 26007KT 10SM OVC014 12/09 A2982 RMK AO2 SLP101 60001 T01220089 10122 20078 58003
Loading
Personal Weather Stations






























Interactive Weather Map
Tropical Storm Tracking
New forecast layout! Learn more

10-Day Weather Forecast

Advertisements
Track Severe Weather on mobile